Аэропорт
Сургут (USRR)

 USRR / SGC
ЗЦ Екатеринбург
Тюмень (USTR)
Тюмень (USTR)
 61.34370, 73.40180  / 200 ft

 USRR 202000Z 21005MPS 9999 OVC009 M10/M11 Q1002 R25/450245 NOSIG RMK QFE746

АИП Таблицы, Данные, АИП_1605
показать схемы

2018 © VATRUS division